Aérodrome :
LOGIN :

S'inscrire | Disclaimer

   EN    FR    IT 

 










Légende :    VFR   VFR Marginal   IFR   IFR Intensif   IFR Très Intensif
Visi : 
Plafond : 
>= 8 km
>= 3000ft
5 à 8 km
1000 à 3000 ft
1500m à 5 km
500 à 1000 ft
800 à 1500m
200 à 500 ft
< 800m
< 200 ft
Symboles :   Orages  Brouillard  Fortes neiges  Fortes précipitations  Vent > 20 kt
SIGMETs :   Divers  Orages  Givrage  Turbulence  Onde Orograph.  Cendres Volcan.






- Altitude de l'aérodrome : 126 ft
- Code IATA : TIA


LATI - Rinas Mother Teresa Arpt - Tirana

DERNIER METAR :
  • 211120Z 34003KT 250V040 CAVOK 29/17 Q1016 NOSIG

METARs EXPIRÉS :
  • 211050Z VRB02KT CAVOK 30/16 Q1016 NOSIG
  • 211020Z 12001KT CAVOK 30/16 Q1016 NOSIG
  • 210950Z 30001KT CAVOK 29/16 Q1016 NOSIG
  • 210920Z VRB02KT CAVOK 27/15 Q1017 NOSIG
  • 210850Z VRB01KT CAVOK 26/16 Q1017 NOSIG

TAF TAF LATI
Valide du 21 à 12h jusqu'au 22 à 12h UTC


211100Z 2112/2212 32012KT 9999 FEW030CB TX31/2112Z TN16/2204Z
BECMG 2117/2119 VRB02KT CAVOK



MET'MAP, la Météo Aéronautique d'un coup d'oeil ! - Copyright ORBIFLY Décembre 2007 - Disclaimer

ORBIFLY MET'MAP TEAM :

Programmation & Développement : Alexandra Zaïnal
Sur une idée originale de : Baudouin d'Aumeries
Assistance à la programmation : Marc-Olivier Méhu
Soutien technique & logistique : Manuel Goepfert

Contact : metmap@orbifly.com




SOURCES & CREDITS :

   NOAA